KOZR/OZR METAR and TAF weather

Enter ICAO airport designator
Station Type Date Time Source
KOZR METAR 2021/01/20 18:19 UTC NOAA

KOZR 201819Z AUTO 27003KT 10SM CLR 18/09 A3024 RMK AO2 SLP243


Station Type Date Time Source
KOZR Decoded METAR 2021/01/20 18:19 UTC NOAA

Cairns Army Air Field / Ozark, AL, United States (KOZR) 31-17N 085-43W
Jan 20, 2021 - 01:19 PM EST / 2021.01.20 1819 UTC
Wind: from the W (270 degrees) at 3 MPH (3 KT):0
Visibility: 10 mile(s):0
Sky conditions: clear
Temperature: 64 F (18 C)
Dew Point: 48 F (9 C)
Relative Humidity: 55%
Pressure (altimeter): 30.24 in. Hg (1024 hPa)
ob: KOZR 201819Z AUTO 27003KT 10SM CLR 18/09 A3024 RMK AO2 SLP243
cycle: 18

Station Type Date Time Source
KOZR TAF 2021/01/20 18:53 UTC NOAA

TAF KOZR 201800Z 2018/2200 32006KT 9999 SCT035 BKN140 QNH3019INS
BECMG 2107/2108 24005KT 9999 SCT030 BKN100 QNH3003INS
BECMG 2117/2118 23005KT 9999 SCT015 OVC050 QNH2998INS
TEMPO 2119/2123 8000 -SHRA OVC015
BECMG 2122/2123 23005KT 8000 -RA SCT007 OVC015 QNH2995INS
TEMPO 2123/2224 BKN007 OVC012 TX19/2021Z TN10/2108Z

Example: see airport list